PASC

Deadhorse (Prudhoe Bay)

Airport
ICAO code
PASC
Summary
ICAO Region
NAM
ICAO Territory
Location

Deadhorse,

Coordinates
70° 11' 41" N , 148° 27' 46" W
KCC
Airport BS
Non Avian Wildlife Hazards to Aircraft
Airport CFIT
Altimeter Temperature Error Correction
Metar
PASC 181312Z 11005KT 3SM -SN BR OVC006 M03/M06 A3019 RMK AO2 SNB11 P0000 T10331056

Description

Regional airport serving Deadhorse, Alaska. Sometimes referred to as Prudhoe Bay Airport.

Climatology

Subarctic climate (Köppen climate classification Dfc) - long, usually very cold winters, and short, cool to mild summers.

Runways

Designator Length Width Surface Rops
5/23 1981 46 ASPH-G Yes/Yes

Airport map

Aerial View

SKYbrary Partners:

Safety knowledge contributed by: